Aérodrome :
LOGIN :

S'inscrire | Disclaimer

   EN    FR    IT 

 










Légende :    VFR   VFR Marginal   IFR   IFR Intensif   IFR Très Intensif
Visi : 
Plafond : 
>= 8 km
>= 3000ft
5 à 8 km
1000 à 3000 ft
1500m à 5 km
500 à 1000 ft
800 à 1500m
200 à 500 ft
< 800m
< 200 ft
Symboles :   Orages  Brouillard  Fortes neiges  Fortes précipitations  Vent > 20 kt
SIGMETs :   Divers  Orages  Givrage  Turbulence  Onde Orograph.  Cendres Volcan.







- Altitude de l'aérodrome : 100 ft


EBDT - Schaffen

DERNIER METAR :
  • 280525Z 17005KT 8000 -RA FEW044 BKN100 18/18 Q0997 BLU BLU BECMG WHT

METARs EXPIRÉS :
  • 280455Z 17005KT 8000 -RA FEW044 BKN100 18/18 Q0997 BLU BLU BECMG WHT
  • 280425Z 17005KT 8000 FEW035 SCT050 BKN130 18/17 Q0997 BLU BLU BECMG WHT
  • 280412Z 16005KT 8000 FEW035 SCT050 BKN130 18/17 Q0997 BLU BLU BECMG WHT
  • 280355Z 16004KT 8000 FEW035 SCT050 BKN120 18/17 Q0997 BLU

TAF TAF EBDT
Valide du 28 à 07h jusqu'au 28 à 16h UTC


280541Z 2807/2816 19008KT 8000 FEW015 BKN140
BECMG 2807/2809 24010KT 9999 FEW013 SCT015 BKN120
TEMPO 2808/2814 24010GG25KT 5000 -SHRA BKN013TCU BKN100
PROB30
TEMPO 2808/2813 VRB10GG35KT 3000 TSRAGS FEW006 BKN010CB BKN080
Pas de NOTAMs connus pour ce terrain.



MET'MAP, la Météo Aéronautique d'un coup d'oeil ! - Copyright ORBIFLY Décembre 2007 - Disclaimer

ORBIFLY MET'MAP TEAM :

Programmation & Développement : Alexandra Zaïnal
Conception & Développement : Baudouin d'Aumeries
Co-Programmation & Développement : Marc-Olivier Méhu
Soutien technique & logistique : Manuel Goepfert

Contact : metmap@orbifly.com




SOURCES & CREDITS :

   NOAA